Time;durP1;ratioP1;P1;durP2;ratioP2;P2;SDS_P1;SDS_P2;PMS_P1;PMS_P2;Temp;Humidity;BMP_temperature;BMP_pressure;BME280_temperature;BME280_humidity;BME280_pressure;Samples;Min_cycle;Max_cycle;Signal;HPM_P1;HPM_P2
2023/09/18 00:00:09;;;;;;;2.97;1.35;;;23.30;99.90;;;;;;4891811;29;20041;-57
2023/09/18 00:02:34;;;;;;;3.42;1.30;;;23.30;99.90;;;;;;4887426;29;20025;-57
2023/09/18 00:05:00;;;;;;;1.75;1.30;;;23.40;99.90;;;;;;4888105;29;20045;-57
2023/09/18 00:07:26;;;;;;;2.80;1.52;;;23.50;99.90;;;;;;4889234;29;20746;-55
2023/09/18 00:09:52;;;;;;;2.42;1.35;;;23.50;99.90;;;;;;4902847;29;20465;-56
2023/09/18 00:12:18;;;;;;;3.83;1.30;;;23.50;99.90;;;;;;4889235;29;20040;-56
2023/09/18 00:14:49;;;;;;;2.80;1.10;;;23.50;99.90;;;;;;4886800;29;20040;-57
2023/09/18 00:17:16;;;;;;;2.38;0.98;;;23.50;99.90;;;;;;4895664;29;20116;-53
2023/09/18 00:19:43;;;;;;;2.78;1.60;;;23.50;99.90;;;;;;4886930;29;20047;-58
2023/09/18 00:22:09;;;;;;;2.50;0.93;;;23.50;99.90;;;;;;4895318;29;20417;-56
2023/09/18 00:24:34;;;;;;;1.67;0.90;;;23.40;99.90;;;;;;4896661;29;20028;-57
2023/09/18 00:27:00;;;;;;;3.30;1.10;;;23.50;99.90;;;;;;4894717;29;20123;-56
2023/09/18 00:29:26;;;;;;;1.50;1.10;;;23.40;99.90;;;;;;4896957;29;20119;-57
2023/09/18 00:31:52;;;;;;;1.58;1.20;;;23.50;99.90;;;;;;4896510;29;20040;-57
2023/09/18 00:34:18;;;;;;;3.20;1.30;;;23.50;99.90;;;;;;4896569;29;20373;-55
2023/09/18 00:36:44;;;;;;;4.50;1.38;;;23.60;99.90;;;;;;4896552;29;20036;-55
2023/09/18 00:39:10;;;;;;;1.35;0.80;;;23.60;99.90;;;;;;4896764;29;20025;-56
2023/09/18 00:41:36;;;;;;;1.70;1.02;;;23.60;99.90;;;;;;4896086;29;20046;-54
2023/09/18 00:44:02;;;;;;;2.53;1.30;;;23.60;99.90;;;;;;4911162;29;20497;-55
2023/09/18 00:46:28;;;;;;;2.85;1.33;;;23.70;99.90;;;;;;4890289;29;20059;-54
2023/09/18 00:48:55;;;;;;;2.42;1.00;;;23.70;99.90;;;;;;4893349;29;20064;-55
2023/09/18 00:51:21;;;;;;;2.33;1.13;;;23.60;99.90;;;;;;4897030;29;20029;-50
2023/09/18 00:53:48;;;;;;;1.75;0.70;;;23.60;99.90;;;;;;4921995;29;20493;-57
2023/09/18 00:56:14;;;;;;;2.45;1.48;;;23.60;99.90;;;;;;4897878;29;20147;-57
2023/09/18 00:58:40;;;;;;;1.88;0.88;;;23.50;99.90;;;;;;4922104;29;20033;-54
2023/09/18 01:01:06;;;;;;;2.47;1.50;;;23.40;99.90;;;;;;4896723;29;20458;-56
2023/09/18 01:03:32;;;;;;;2.30;1.10;;;23.30;99.90;;;;;;4895232;29;20033;-56
2023/09/18 01:05:59;;;;;;;2.28;1.02;;;23.30;99.90;;;;;;4890868;29;20028;-57
2023/09/18 01:08:24;;;;;;;1.63;1.00;;;23.30;99.90;;;;;;4893813;29;20040;-52
2023/09/18 01:11:21;;;;;;;4.10;1.55;;;23.20;99.90;;;;;;4922723;29;20035;-53
2023/09/18 01:14:00;;;;;;;3.17;1.70;;;23.20;99.90;;;;;;4899036;29;20181;-53
2023/09/18 01:16:36;;;;;;;2.03;1.10;;;23.20;99.90;;;;;;4895666;29;20481;-56
2023/09/18 01:19:03;;;;;;;3.55;1.23;;;23.20;99.90;;;;;;4894106;29;20052;-54
2023/09/18 01:21:29;;;;;;;2.30;1.20;;;23.20;99.90;;;;;;4901860;29;20115;-54
2023/09/18 01:23:54;;;;;;;3.20;1.40;;;23.20;99.90;;;;;;4896869;29;20422;-54
2023/09/18 01:26:20;;;;;;;1.83;1.17;;;23.10;99.90;;;;;;4896105;29;20158;-55
2023/09/18 01:28:46;;;;;;;4.78;1.38;;;23.10;99.90;;;;;;4895731;29;20048;-54
2023/09/18 01:31:11;;;;;;;3.03;1.60;;;23.10;99.90;;;;;;4895286;29;20059;-54
2023/09/18 01:33:39;;;;;;;1.67;1.10;;;23.20;99.90;;;;;;4910379;29;20044;-54
2023/09/18 01:36:08;;;;;;;6.57;1.20;;;23.30;99.90;;;;;;4895016;29;20025;-52
2023/09/18 01:38:36;;;;;;;1.75;1.08;;;23.30;99.90;;;;;;4896350;29;20024;-54
2023/09/18 01:41:02;;;;;;;1.50;1.00;;;23.40;99.90;;;;;;4894483;29;20486;-55
2023/09/18 01:43:27;;;;;;;4.25;2.00;;;23.40;99.90;;;;;;4893710;29;20043;-51
2023/09/18 01:45:54;;;;;;;1.15;0.75;;;23.50;99.90;;;;;;4903317;29;20560;-56
2023/09/18 01:48:20;;;;;;;2.60;1.30;;;23.40;99.90;;;;;;4890533;29;20213;-56
2023/09/18 01:50:46;;;;;;;3.25;1.45;;;23.40;99.90;;;;;;4892818;29;20107;-55
2023/09/18 01:53:11;;;;;;;3.40;1.63;;;23.30;99.90;;;;;;4893887;29;20072;-57
2023/09/18 01:55:37;;;;;;;2.45;1.30;;;23.20;99.90;;;;;;4894408;29;20100;-53
2023/09/18 01:58:03;;;;;;;3.10;1.33;;;23.10;99.90;;;;;;4894200;29;20036;-54
2023/09/18 02:00:29;;;;;;;7.88;1.10;;;23.10;99.90;;;;;;4893734;29;20087;-57
2023/09/18 02:02:54;;;;;;;3.00;1.38;;;22.90;99.90;;;;;;4895056;29;20378;-52
2023/09/18 02:05:20;;;;;;;2.40;1.15;;;22.90;99.90;;;;;;4895986;29;20028;-52
2023/09/18 02:07:46;;;;;;;2.03;1.23;;;22.90;99.90;;;;;;4895079;29;20029;-53
2023/09/18 02:10:14;;;;;;;2.83;1.33;;;22.70;99.90;;;;;;4896187;29;20031;-56
2023/09/18 02:12:40;;;;;;;4.28;1.35;;;22.70;99.90;;;;;;4910583;29;20028;-52
2023/09/18 02:15:09;;;;;;;2.58;1.35;;;22.50;99.90;;;;;;4909134;29;20131;-54
2023/09/18 02:17:35;;;;;;;4.05;1.35;;;22.30;99.90;;;;;;4900199;29;20265;-56
2023/09/18 02:20:04;;;;;;;2.53;1.50;;;22.10;99.90;;;;;;4895341;29;20159;-54
2023/09/18 02:22:32;;;;;;;3.38;1.58;;;22.00;99.90;;;;;;4895767;29;20076;-57
2023/09/18 02:24:58;;;;;;;2.65;1.52;;;21.80;99.90;;;;;;4895324;29;20036;-55
2023/09/18 02:27:24;;;;;;;2.95;1.55;;;21.80;99.90;;;;;;4896449;29;20048;-56
2023/09/18 02:29:53;;;;;;;3.65;1.73;;;21.80;99.90;;;;;;4895613;29;20032;-55
2023/09/18 02:32:19;;;;;;;2.83;1.40;;;21.70;99.90;;;;;;4895883;29;20041;-53
2023/09/18 02:34:44;;;;;;;3.75;1.75;;;21.50;99.90;;;;;;4895259;29;20035;-56
2023/09/18 02:37:10;;;;;;;5.57;1.40;;;21.40;99.90;;;;;;4910113;29;20473;-54
2023/09/18 02:39:36;;;;;;;4.53;2.03;;;21.40;99.90;;;;;;4895329;29;20032;-56
2023/09/18 02:42:02;;;;;;;4.32;1.58;;;21.40;99.90;;;;;;4894392;29;20036;-53
2023/09/18 02:44:27;;;;;;;2.83;1.23;;;21.30;99.90;;;;;;4892717;29;20462;-57
2023/09/18 02:46:53;;;;;;;2.40;1.15;;;21.30;99.90;;;;;;4894470;29;20032;-51
2023/09/18 02:49:20;;;;;;;5.43;1.27;;;21.40;99.90;;;;;;4895416;29;20040;-54
2023/09/18 02:51:46;;;;;;;2.40;1.35;;;21.30;99.90;;;;;;4895445;29;20138;-54
2023/09/18 02:54:11;;;;;;;5.03;2.10;;;21.30;99.90;;;;;;4895091;29;20107;-54
2023/09/18 02:56:38;;;;;;;3.00;1.85;;;21.30;99.90;;;;;;4894294;29;20683;-56
2023/09/18 02:59:03;;;;;;;3.70;1.58;;;21.20;99.90;;;;;;4892727;29;20500;-57
2023/09/18 03:01:29;;;;;;;2.45;1.15;;;21.20;99.90;;;;;;4895672;29;20028;-54
2023/09/18 03:03:55;;;;;;;4.05;1.25;;;21.30;99.90;;;;;;4893566;29;20037;-57
2023/09/18 03:06:21;;;;;;;4.90;1.60;;;21.40;99.90;;;;;;4910113;29;20025;-51
2023/09/18 03:08:46;;;;;;;7.68;1.17;;;21.40;99.90;;;;;;4908089;29;20032;-54
2023/09/18 03:11:14;;;;;;;5.30;1.63;;;21.50;99.90;;;;;;4909985;29;20104;-51
2023/09/18 03:13:49;;;;;;;3.63;1.70;;;21.40;99.90;;;;;;4892963;29;20405;-55
2023/09/18 03:16:15;;;;;;;3.63;1.67;;;21.40;99.90;;;;;;4890701;29;20522;-55
2023/09/18 03:18:40;;;;;;;2.78;1.40;;;21.40;99.90;;;;;;4901949;29;20107;-56
2023/09/18 03:21:06;;;;;;;5.40;1.55;;;21.40;99.90;;;;;;4896149;29;20030;-54
2023/09/18 03:23:32;;;;;;;5.15;1.55;;;21.40;99.90;;;;;;4894577;29;20032;-55
2023/09/18 03:25:59;;;;;;;6.95;1.90;;;21.40;99.90;;;;;;4895477;29;20104;-54
2023/09/18 03:28:25;;;;;;;3.33;1.25;;;21.40;99.90;;;;;;4908942;29;20084;-49
2023/09/18 03:30:51;;;;;;;2.65;1.42;;;21.40;99.90;;;;;;4894667;29;20044;-54
2023/09/18 03:33:17;;;;;;;5.72;1.30;;;21.50;99.90;;;;;;4891787;29;20037;-53
2023/09/18 03:35:51;;;;;;;3.05;1.83;;;21.60;99.90;;;;;;4903045;29;20036;-54
2023/09/18 03:38:17;;;;;;;2.35;1.45;;;21.60;99.90;;;;;;4897726;29;20032;-54
2023/09/18 03:40:43;;;;;;;5.10;1.48;;;21.60;99.90;;;;;;4898043;29;20071;-54
2023/09/18 03:43:10;;;;;;;5.28;1.73;;;21.60;99.90;;;;;;4885671;29;20131;-58
2023/09/18 03:45:36;;;;;;;2.70;1.35;;;21.50;99.90;;;;;;4890337;29;20041;-56
2023/09/18 03:48:02;;;;;;;4.97;2.70;;;21.40;99.90;;;;;;4896444;29;20032;-51
2023/09/18 03:50:28;;;;;;;2.95;1.65;;;21.40;99.90;;;;;;4898403;29;20111;-55
2023/09/18 03:52:53;;;;;;;6.80;2.13;;;21.30;99.90;;;;;;4897526;29;20108;-55
2023/09/18 03:55:19;;;;;;;5.45;2.03;;;21.40;99.90;;;;;;4898300;29;20346;-55
2023/09/18 03:57:47;;;;;;;2.60;1.60;;;21.50;99.90;;;;;;4897899;29;20039;-53
2023/09/18 04:00:14;;;;;;;3.72;2.10;;;21.50;99.90;;;;;;4898048;29;20052;-56
2023/09/18 04:02:39;;;;;;;6.85;1.58;;;21.60;99.90;;;;;;4896446;29;20031;-57
2023/09/18 04:05:07;;;;;;;4.78;1.20;;;21.60;99.90;;;;;;4897060;29;20286;-57
2023/09/18 04:07:32;;;;;;;7.28;1.38;;;21.70;99.90;;;;;;4897573;29;20120;-53
2023/09/18 04:09:58;;;;;;;8.52;1.58;;;21.70;99.90;;;;;;4897852;29;20124;-52
2023/09/18 04:12:24;;;;;;;2.97;1.15;;;21.70;99.90;;;;;;4897913;29;20430;-55
2023/09/18 04:14:50;;;;;;;5.00;1.52;;;21.70;99.90;;;;;;4897344;29;20442;-52
2023/09/18 04:17:17;;;;;;;6.20;1.65;;;21.60;99.90;;;;;;4898156;29;20035;-50
2023/09/18 04:19:43;;;;;;;2.85;1.33;;;21.60;99.90;;;;;;4896711;29;20040;-51
2023/09/18 04:22:09;;;;;;;10.35;2.30;;;21.40;99.90;;;;;;4897673;29;20024;-52
2023/09/18 04:24:35;;;;;;;3.92;2.20;;;21.30;99.90;;;;;;4893750;29;20033;-52
2023/09/18 04:27:01;;;;;;;4.70;1.48;;;21.10;99.90;;;;;;4897002;29;20032;-52
2023/09/18 04:29:26;;;;;;;6.93;1.90;;;21.00;99.90;;;;;;4897430;29;20036;-52
2023/09/18 04:31:54;;;;;;;5.47;1.60;;;20.80;99.90;;;;;;4911277;29;20056;-55
2023/09/18 04:34:20;;;;;;;11.77;2.22;;;20.60;99.90;;;;;;4896437;29;20168;-58
2023/09/18 04:36:47;;;;;;;4.57;1.48;;;20.50;99.90;;;;;;4896771;29;20120;-57
2023/09/18 04:39:13;;;;;;;5.88;2.25;;;20.40;99.90;;;;;;4896988;29;20068;-53
2023/09/18 04:41:39;;;;;;;6.63;2.20;;;20.40;99.90;;;;;;4897510;29;20031;-54
2023/09/18 04:44:06;;;;;;;8.55;2.17;;;20.30;99.90;;;;;;4910759;29;20048;-54
2023/09/18 04:46:35;;;;;;;7.32;2.67;;;20.10;99.90;;;;;;4897866;29;20424;-52
2023/09/18 04:49:00;;;;;;;8.10;2.42;;;20.10;99.90;;;;;;4895599;29;20036;-55
2023/09/18 04:51:26;;;;;;;12.35;2.45;;;20.00;99.90;;;;;;4897023;29;20048;-52
2023/09/18 04:53:52;;;;;;;7.70;2.25;;;20.00;99.90;;;;;;4896810;29;20044;-56
2023/09/18 04:56:18;;;;;;;3.72;1.70;;;19.90;99.90;;;;;;4895714;29;20044;-54
2023/09/18 04:58:43;;;;;;;8.63;2.47;;;19.90;99.90;;;;;;4896741;29;20052;-55
2023/09/18 05:01:10;;;;;;;4.53;2.00;;;19.90;99.90;;;;;;4896811;29;20028;-50
2023/09/18 05:03:37;;;;;;;10.32;2.00;;;19.90;99.90;;;;;;4897209;29;20482;-49
2023/09/18 05:06:04;;;;;;;6.38;1.65;;;19.80;99.90;;;;;;4898231;29;20481;-54
2023/09/18 05:08:29;;;;;;;8.45;2.65;;;19.80;99.90;;;;;;4897668;29;20047;-58
2023/09/18 05:10:55;;;;;;;4.70;1.92;;;19.80;99.90;;;;;;4896519;29;20530;-56
2023/09/18 05:13:21;;;;;;;6.75;2.28;;;19.80;99.90;;;;;;4896289;29;20088;-52
2023/09/18 05:15:47;;;;;;;4.65;1.40;;;19.90;99.90;;;;;;4896548;29;20060;-54
2023/09/18 05:18:13;;;;;;;9.65;2.20;;;19.90;99.90;;;;;;4896987;29;20028;-51
2023/09/18 05:20:40;;;;;;;8.10;1.38;;;19.80;99.90;;;;;;4895502;29;20493;-55
2023/09/18 05:23:05;;;;;;;4.15;1.40;;;19.80;99.90;;;;;;4896188;29;20025;-57
2023/09/18 05:25:32;;;;;;;3.65;1.40;;;19.80;99.90;;;;;;4894910;29;20033;-54
2023/09/18 05:27:59;;;;;;;2.92;1.40;;;19.80;99.90;;;;;;4896676;29;20393;-57
2023/09/18 05:30:33;;;;;;;2.80;1.20;;;19.80;99.90;;;;;;4896307;29;20032;-54
2023/09/18 05:33:07;;;;;;;6.40;1.60;;;19.80;99.90;;;;;;4896420;29;20035;-54
2023/09/18 05:35:51;;;;;;;4.18;1.63;;;19.90;99.90;;;;;;4895288;29;20045;-55
2023/09/18 05:38:17;;;;;;;3.88;1.50;;;19.70;99.90;;;;;;4893775;29;20501;-52
2023/09/18 05:40:44;;;;;;;5.45;1.65;;;19.70;99.90;;;;;;4889711;29;20093;-58
2023/09/18 05:43:11;;;;;;;5.57;1.58;;;19.80;99.90;;;;;;4892064;29;20020;-55
2023/09/18 05:45:38;;;;;;;8.98;1.95;;;19.70;99.90;;;;;;4892514;29;20076;-58
2023/09/18 05:48:04;;;;;;;6.88;1.30;;;19.70;99.90;;;;;;4896713;29;20454;-55
2023/09/18 05:50:38;;;;;;;3.92;1.50;;;19.70;99.90;;;;;;4892292;29;20055;-71
2023/09/18 05:53:04;;;;;;;6.97;2.13;;;19.80;99.90;;;;;;4895510;29;20397;-70
2023/09/18 05:55:31;;;;;;;2.83;1.73;;;19.70;99.90;;;;;;4896836;29;20087;-72
2023/09/18 05:57:57;;;;;;;4.80;1.83;;;19.70;99.90;;;;;;4895715;29;20028;-73
2023/09/18 06:00:23;;;;;;;3.78;1.67;;;19.70;99.90;;;;;;4907884;29;20056;-71
2023/09/18 06:02:51;;;;;;;7.85;1.73;;;19.90;99.90;;;;;;4894913;29;20020;-71
2023/09/18 06:05:21;;;;;;;5.32;1.27;;;19.80;99.90;;;;;;4896585;29;20029;-72
2023/09/18 06:07:50;;;;;;;5.70;1.52;;;19.80;99.90;;;;;;4896691;29;20122;-72
2023/09/18 06:10:17;;;;;;;5.70;1.98;;;19.90;99.90;;;;;;4892800;29;20040;-71
2023/09/18 06:12:44;;;;;;;4.53;1.58;;;19.80;99.90;;;;;;4896717;29;20032;-69
2023/09/18 06:15:11;;;;;;;3.58;1.40;;;19.80;99.90;;;;;;4890449;29;20084;-70
2023/09/18 06:17:42;;;;;;;5.32;1.63;;;19.80;99.90;;;;;;4926881;29;20048;-72
2023/09/18 06:20:09;;;;;;;8.57;1.90;;;19.90;99.90;;;;;;4913325;29;20611;-71
2023/09/18 06:22:37;;;;;;;5.20;1.90;;;19.90;99.90;;;;;;4896017;29;20080;-71
2023/09/18 06:25:09;;;;;;;10.27;1.38;;;19.90;99.90;;;;;;4910998;29;20119;-72
2023/09/18 06:27:36;;;;;;;7.85;1.00;;;19.90;99.90;;;;;;4895240;29;20017;-72
2023/09/18 06:30:06;;;;;;;2.35;1.30;;;20.00;99.90;;;;;;4894828;29;20044;-72
2023/09/18 06:32:32;;;;;;;4.60;1.23;;;20.00;99.90;;;;;;4892781;29;20036;-72
2023/09/18 06:34:58;;;;;;;4.90;1.25;;;19.90;99.90;;;;;;4894744;29;20111;-72
2023/09/18 06:37:24;;;;;;;10.05;1.73;;;19.80;99.90;;;;;;4894527;29;20227;-72
2023/09/18 06:39:51;;;;;;;6.68;2.15;;;19.90;99.90;;;;;;4894869;29;20031;-72
2023/09/18 06:42:17;;;;;;;10.63;1.95;;;19.80;99.90;;;;;;4887879;29;20040;-72
2023/09/18 06:44:43;;;;;;;4.22;1.75;;;19.80;99.90;;;;;;4894929;29;20121;-73
2023/09/18 06:47:08;;;;;;;7.32;1.75;;;19.90;99.90;;;;;;4895328;29;20473;-72
2023/09/18 06:49:34;;;;;;;9.68;1.73;;;19.90;99.90;;;;;;4895698;29;20039;-70
2023/09/18 06:52:00;;;;;;;6.10;2.13;;;19.90;99.90;;;;;;4894518;29;20033;-72
2023/09/18 06:54:26;;;;;;;6.45;2.05;;;19.90;99.90;;;;;;4898258;29;20036;-72
2023/09/18 06:56:51;;;;;;;3.75;1.33;;;20.00;99.90;;;;;;4893318;29;20075;-70
2023/09/18 06:59:18;;;;;;;6.13;1.63;;;20.00;99.90;;;;;;4896063;29;20441;-71
2023/09/18 07:01:44;;;;;;;4.63;1.77;;;20.00;99.90;;;;;;4895863;29;20660;-71
2023/09/18 07:04:10;;;;;;;5.10;1.67;;;20.10;99.90;;;;;;4910106;29;20039;-71
2023/09/18 07:06:35;;;;;;;8.00;2.22;;;20.00;99.90;;;;;;4895697;29;20028;-72
2023/09/18 07:09:04;;;;;;;7.53;1.95;;;20.10;99.90;;;;;;4896076;29;20401;-73
2023/09/18 07:11:30;;;;;;;6.85;1.13;;;20.10;99.90;;;;;;4897230;29;20025;-70
2023/09/18 07:13:56;;;;;;;1.83;1.48;;;20.20;99.90;;;;;;4899196;29;20108;-75
2023/09/18 07:16:21;;;;;;;5.57;1.42;;;20.30;99.90;;;;;;4898817;29;20373;-74
2023/09/18 07:18:47;;;;;;;4.03;1.02;;;20.50;99.90;;;;;;4899710;29;20033;-76
2023/09/18 07:21:13;;;;;;;2.28;0.85;;;20.50;99.90;;;;;;4900076;29;20032;-71
2023/09/18 07:23:40;;;;;;;4.90;0.70;;;20.70;99.90;;;;;;4899357;29;20048;-72
2023/09/18 07:26:06;;;;;;;4.05;1.30;;;20.80;99.90;;;;;;4928077;29;20032;-72
2023/09/18 07:28:32;;;;;;;1.52;0.68;;;20.80;99.90;;;;;;4899801;29;20043;-72
2023/09/18 07:31:08;;;;;;;2.25;0.90;;;20.90;99.90;;;;;;4897686;29;20560;-71
2023/09/18 07:33:34;;;;;;;1.13;0.60;;;20.90;99.90;;;;;;4919618;29;20032;-71
2023/09/18 07:36:00;;;;;;;5.70;1.05;;;20.90;99.90;;;;;;4899000;29;20141;-72
2023/09/18 07:38:26;;;;;;;0.85;0.50;;;20.90;99.90;;;;;;4897442;29;20055;-72
2023/09/18 07:40:52;;;;;;;1.52;0.82;;;20.90;99.90;;;;;;4898622;29;20678;-73
2023/09/18 07:43:17;;;;;;;1.55;0.90;;;20.90;99.90;;;;;;4899078;29;20138;-72
2023/09/18 07:45:43;;;;;;;1.95;0.52;;;20.90;99.90;;;;;;4897809;29;20045;-72
2023/09/18 07:48:09;;;;;;;1.70;0.60;;;20.90;99.90;;;;;;4899382;29;20112;-72
2023/09/18 07:50:35;;;;;;;1.08;0.40;;;20.80;99.90;;;;;;4897762;29;20441;-71
2023/09/18 07:53:02;;;;;;;5.00;0.63;;;20.90;99.90;;;;;;4899204;29;20040;-72
2023/09/18 07:55:29;;;;;;;4.50;1.13;;;20.90;99.90;;;;;;4897854;29;20056;-73
2023/09/18 07:57:55;;;;;;;0.55;0.35;;;20.90;99.90;;;;;;4897717;29;20032;-71
2023/09/18 08:00:22;;;;;;;3.50;0.75;;;20.80;99.90;;;;;;4888647;29;20480;-72
2023/09/18 08:02:50;;;;;;;2.28;0.60;;;20.80;99.90;;;;;;4897252;29;20035;-72
2023/09/18 08:05:17;;;;;;;3.28;0.90;;;20.90;99.90;;;;;;4895283;29;20466;-72
2023/09/18 08:07:43;;;;;;;3.45;0.63;;;20.80;99.90;;;;;;4897016;29;20036;-72
2023/09/18 08:10:09;;;;;;;3.03;0.40;;;20.80;99.90;;;;;;4912295;29;20037;-72
2023/09/18 08:12:35;;;;;;;12.63;1.15;;;20.70;99.90;;;;;;4928836;29;20028;-72
2023/09/18 08:15:02;;;;;;;3.85;0.73;;;20.70;99.90;;;;;;4920339;29;20037;-72
2023/09/18 08:17:28;;;;;;;1.05;0.43;;;20.70;99.90;;;;;;4897439;29;20039;-72
2023/09/18 08:19:55;;;;;;;2.95;0.88;;;20.70;99.90;;;;;;4922420;29;20107;-71
2023/09/18 08:22:21;;;;;;;2.08;0.75;;;20.70;99.90;;;;;;4898349;29;20495;-72
2023/09/18 08:24:48;;;;;;;2.70;1.38;;;20.70;99.90;;;;;;4897466;29;20120;-72
2023/09/18 08:27:17;;;;;;;2.78;0.45;;;20.70;99.90;;;;;;4897319;29;20398;-71
2023/09/18 08:29:46;;;;;;;1.40;0.50;;;20.70;99.90;;;;;;4898102;29;20063;-72
2023/09/18 08:32:12;;;;;;;4.80;0.60;;;20.70;99.90;;;;;;4897116;29;20048;-72
2023/09/18 08:34:38;;;;;;;1.90;0.52;;;20.70;99.90;;;;;;4897591;29;20037;-72
2023/09/18 08:37:04;;;;;;;5.35;0.60;;;20.70;99.90;;;;;;4898010;29;20039;-72
2023/09/18 08:39:32;;;;;;;1.80;0.80;;;20.70;99.90;;;;;;4898350;29;20033;-72
2023/09/18 08:42:07;;;;;;;2.30;1.05;;;20.70;99.90;;;;;;4896363;29;20041;-72
2023/09/18 08:44:34;;;;;;;1.70;0.52;;;20.70;99.90;;;;;;4896591;29;20378;-71
2023/09/18 08:47:01;;;;;;;5.32;0.73;;;20.60;99.90;;;;;;4896452;29;20036;-72
2023/09/18 08:49:29;;;;;;;4.65;1.23;;;20.60;99.90;;;;;;4896835;29;20028;-70
2023/09/18 08:51:56;;;;;;;7.22;1.48;;;20.60;99.90;;;;;;4896267;29;20044;-72
2023/09/18 08:54:23;;;;;;;5.22;1.10;;;20.70;99.90;;;;;;4895177;29;20028;-72
2023/09/18 08:56:53;;;;;;;0.85;0.40;;;20.60;99.90;;;;;;4896512;29;20465;-56
2023/09/18 08:59:22;;;;;;;8.10;1.00;;;20.60;99.90;;;;;;4927499;29;20065;-55
2023/09/18 09:01:48;;;;;;;0.30;0.15;;;20.70;99.90;;;;;;4924367;29;20446;-53
2023/09/18 09:04:14;;;;;;;2.55;0.55;;;20.70;99.90;;;;;;4927536;29;20501;-55
2023/09/18 09:06:40;;;;;;;4.57;1.08;;;20.80;99.90;;;;;;4896783;29;20381;-53
2023/09/18 09:09:07;;;;;;;3.72;1.08;;;20.80;99.90;;;;;;4897528;29;20036;-65
2023/09/18 09:11:34;;;;;;;4.43;0.88;;;20.90;99.90;;;;;;4897195;29;20059;-54
2023/09/18 09:14:27;;;;;;;1.90;0.40;;;20.90;99.90;;;;;;4897287;29;20051;-52
2023/09/18 09:16:55;;;;;;;3.92;1.08;;;21.00;99.90;;;;;;4896200;29;20051;-55
2023/09/18 09:19:42;;;;;;;2.30;0.55;;;20.90;99.90;;;;;;4896323;29;20028;-54
2023/09/18 09:22:09;;;;;;;3.58;0.85;;;21.00;99.90;;;;;;4897033;29;20035;-51
2023/09/18 09:24:41;;;;;;;0.88;0.30;;;21.00;99.90;;;;;;4897274;29;20021;-55
2023/09/18 09:27:08;;;;;;;3.22;0.93;;;21.00;99.90;;;;;;4896029;29;20041;-53
2023/09/18 09:29:34;;;;;;;1.95;0.95;;;21.10;99.90;;;;;;4897402;29;20413;-69
2023/09/18 09:32:19;;;;;;;2.45;0.73;;;21.00;99.90;;;;;;4911265;29;20044;-70
2023/09/18 09:34:48;;;;;;;0.57;0.30;;;21.00;99.90;;;;;;4896334;29;20021;-70
2023/09/18 09:37:14;;;;;;;3.08;0.60;;;20.90;99.90;;;;;;4896068;29;20512;-69
2023/09/18 09:40:09;;;;;;;6.13;0.60;;;20.90;99.90;;;;;;4887403;29;20037;-70
2023/09/18 09:42:40;;;;;;;5.25;0.75;;;21.00;99.90;;;;;;4890048;29;20036;-70
2023/09/18 09:45:12;;;;;;;2.47;0.63;;;21.00;99.90;;;;;;4924737;29;20048;-71
2023/09/18 09:47:38;;;;;;;7.82;1.25;;;21.10;99.90;;;;;;4894351;29;20063;-70
2023/09/18 09:50:16;;;;;;;0.93;0.82;;;21.00;99.90;;;;;;4888317;29;20066;-71
2023/09/18 09:52:48;;;;;;;0.38;0.30;;;21.00;99.90;;;;;;4912790;29;20035;-71
2023/09/18 09:55:34;;;;;;;1.80;1.05;;;21.00;99.90;;;;;;4905208;29;20024;-71
2023/09/18 09:58:05;;;;;;;0.65;0.40;;;21.00;99.90;;;;;;4913802;29;20119;-71
2023/09/18 10:00:32;;;;;;;2.10;1.10;;;21.00;99.90;;;;;;4930267;29;20024;-72
2023/09/18 10:03:01;;;;;;;4.93;0.80;;;21.00;99.90;;;;;;4915000;29;20560;-71
2023/09/18 10:05:35;;;;;;;5.20;0.50;;;21.00;99.90;;;;;;4914468;29;20044;-71
2023/09/18 10:08:08;;;;;;;4.82;0.98;;;21.10;99.90;;;;;;4925376;29;20517;-71
2023/09/18 10:10:43;;;;;;;3.30;0.70;;;21.30;99.90;;;;;;4913934;29;20060;-72
2023/09/18 10:13:46;;;;;;;7.07;1.67;;;21.30;99.90;;;;;;4909138;29;20039;-72
2023/09/18 10:16:14;;;;;;;1.90;0.45;;;21.40;99.90;;;;;;4905876;29;20126;-71
2023/09/18 10:19:08;;;;;;;6.90;0.52;;;21.60;99.90;;;;;;4929063;29;20072;-71
2023/09/18 10:22:13;;;;;;;1.88;0.60;;;21.70;99.90;;;;;;4930792;29;20048;-70
2023/09/18 10:24:45;;;;;;;1.17;0.65;;;21.70;99.90;;;;;;4878707;29;20518;-69
2023/09/18 10:27:14;;;;;;;1.38;0.47;;;21.50;99.90;;;;;;4924963;29;20036;-68
2023/09/18 10:29:41;;;;;;;6.47;0.50;;;21.60;99.90;;;;;;4892156;29;20028;-70
2023/09/18 10:32:08;;;;;;;7.60;0.68;;;21.70;99.90;;;;;;4925401;29;20035;-70
2023/09/18 10:34:36;;;;;;;1.20;0.68;;;21.70;99.90;;;;;;4905793;29;20042;-69
2023/09/18 10:37:07;;;;;;;4.18;0.80;;;21.80;99.90;;;;;;4894913;29;20024;-69
2023/09/18 10:39:36;;;;;;;1.17;0.50;;;21.80;99.90;;;;;;4873650;28;20036;-69
2023/09/18 10:42:05;;;;;;;3.58;0.68;;;22.00;99.90;;;;;;4923093;29;20058;-70
2023/09/18 10:44:34;;;;;;;2.67;0.80;;;22.20;99.90;;;;;;4912373;29;20107;-69
2023/09/18 10:47:05;;;;;;;3.13;1.05;;;22.20;99.90;;;;;;4914270;29;20075;-69
2023/09/18 10:49:31;;;;;;;3.80;0.75;;;22.50;99.90;;;;;;4915051;29;20123;-69
2023/09/18 10:51:58;;;;;;;3.63;0.90;;;22.50;99.90;;;;;;4914505;29;20032;-69
2023/09/18 10:54:27;;;;;;;3.95;0.65;;;22.40;99.90;;;;;;4913267;29;20028;-69
2023/09/18 10:56:55;;;;;;;1.92;0.68;;;22.60;99.90;;;;;;4913394;29;20517;-70
2023/09/18 10:59:21;;;;;;;2.65;0.77;;;22.60;99.90;;;;;;4913625;29;20032;-70
2023/09/18 11:01:48;;;;;;;7.63;0.85;;;22.70;99.90;;;;;;4914629;29;20028;-70
2023/09/18 11:04:17;;;;;;;1.05;0.55;;;22.90;99.90;;;;;;4895293;29;20036;-70
2023/09/18 11:06:55;;;;;;;1.23;0.50;;;22.90;99.90;;;;;;4914635;29;20672;-69
2023/09/18 11:09:29;;;;;;;8.07;1.55;;;23.10;99.90;;;;;;4914764;29;20036;-71
2023/09/18 11:12:02;;;;;;;3.42;0.77;;;23.20;99.90;;;;;;4914276;29;20397;-69
2023/09/18 11:14:44;;;;;;;1.95;0.50;;;23.30;99.90;;;;;;4914476;29;20036;-69
2023/09/18 11:17:36;;;;;;;2.00;0.50;;;23.10;99.90;;;;;;4906932;29;20473;-70
2023/09/18 11:20:09;;;;;;;1.13;0.52;;;23.40;99.90;;;;;;4914644;29;20393;-71
2023/09/18 11:22:37;;;;;;;0.90;0.43;;;23.30;99.90;;;;;;4914028;29;20039;-70
2023/09/18 11:25:45;;;;;;;1.15;0.63;;;23.20;99.90;;;;;;4928572;29;20032;-70
2023/09/18 11:28:26;;;;;;;1.02;0.57;;;23.10;99.90;;;;;;4914271;29;20030;-70
2023/09/18 11:31:01;;;;;;;0.95;0.60;;;23.10;99.90;;;;;;4912013;28;20437;-71
2023/09/18 11:33:39;;;;;;;1.98;0.55;;;23.30;99.90;;;;;;4932809;29;20074;-70
2023/09/18 11:36:14;;;;;;;1.85;0.80;;;23.30;99.90;;;;;;4909711;29;20051;-71
2023/09/18 11:38:55;;;;;;;2.05;0.60;;;23.40;99.90;;;;;;4911781;29;20036;-69
2023/09/18 11:41:38;;;;;;;3.88;1.13;;;23.70;99.90;;;;;;4904484;29;20032;-69
2023/09/18 11:44:10;;;;;;;2.08;0.40;;;23.70;99.90;;;;;;4911251;29;20051;-67
2023/09/18 11:46:39;;;;;;;7.13;0.95;;;23.70;99.90;;;;;;4912096;29;20068;-70
2023/09/18 11:49:12;;;;;;;2.63;0.65;;;23.70;99.90;;;;;;4911387;29;20485;-71
2023/09/18 11:51:38;;;;;;;1.85;0.55;;;24.10;99.90;;;;;;4910885;29;20795;-69
2023/09/18 11:54:07;;;;;;;1.90;0.98;;;23.90;99.90;;;;;;4910898;29;20481;-69
2023/09/18 11:56:34;;;;;;;5.00;0.93;;;24.10;99.90;;;;;;4906825;29;20087;-67
2023/09/18 11:59:04;;;;;;;3.22;0.75;;;23.80;99.90;;;;;;4914312;29;20120;-67
2023/09/18 12:01:31;;;;;;;8.88;0.98;;;24.20;99.90;;;;;;4938716;29;20035;-71
2023/09/18 12:04:07;;;;;;;0.52;0.30;;;23.90;99.90;;;;;;4914387;29;20064;-68
2023/09/18 12:06:35;;;;;;;2.58;0.50;;;24.30;99.90;;;;;;4906593;29;20033;-70
2023/09/18 12:09:03;;;;;;;3.00;0.50;;;24.50;99.90;;;;;;4914736;29;20362;-70
2023/09/18 12:11:29;;;;;;;1.67;0.90;;;24.50;99.90;;;;;;4914146;29;20028;-71
2023/09/18 12:13:57;;;;;;;7.47;0.60;;;24.00;99.90;;;;;;4899730;28;20095;-70
2023/09/18 12:16:24;;;;;;;3.42;0.85;;;24.00;99.90;;;;;;4929694;29;20028;-70
2023/09/18 12:18:50;;;;;;;0.45;0.30;;;23.50;99.90;;;;;;4909550;29;20028;-70
2023/09/18 12:21:17;;;;;;;2.72;1.23;;;23.70;99.90;;;;;;4914310;29;20047;-70
2023/09/18 12:23:46;;;;;;;2.00;1.02;;;23.80;99.90;;;;;;4912967;29;20039;-69
2023/09/18 12:26:17;;;;;;;2.97;0.50;;;23.70;99.90;;;;;;4913439;29;20051;-70
2023/09/18 12:28:44;;;;;;;3.70;0.70;;;23.60;99.90;;;;;;4912495;29;20036;-68
2023/09/18 12:31:15;;;;;;;2.38;0.88;;;23.90;99.90;;;;;;4913779;29;20036;-69
2023/09/18 12:33:47;;;;;;;5.47;0.70;;;23.80;99.90;;;;;;4913584;29;20080;-70
2023/09/18 12:36:19;;;;;;;2.58;0.73;;;24.00;99.90;;;;;;4913267;29;20230;-70
2023/09/18 12:39:00;;;;;;;0.70;0.70;;;24.10;99.90;;;;;;4911620;29;20020;-71
2023/09/18 12:41:26;;;;;;;;;;;24.20;99.90;;;;;;4927179;29;20046;-70
2023/09/18 12:43:54;;;;;;;2.58;0.50;;;23.80;99.90;;;;;;4890405;28;20271;-70
2023/09/18 12:46:21;;;;;;;2.03;0.40;;;23.90;99.90;;;;;;4929184;29;20517;-70
2023/09/18 12:48:47;;;;;;;1.13;0.30;;;23.80;99.90;;;;;;4912944;29;20075;-70
2023/09/18 12:51:14;;;;;;;2.13;0.60;;;23.80;99.90;;;;;;4905236;29;20031;-69
2023/09/18 12:53:41;;;;;;;0.43;0.35;;;23.50;99.90;;;;;;4909523;29;20032;-70